sensor_id;sensor_type;location;lat;lon;timestamp;P1;durP1;ratioP1;P2;durP2;ratioP2
29026;SDS011;16120;48.608;9.092;2022-11-06T00:00:19;89.60;;;13.47;;
29026;SDS011;16120;48.608;9.092;2022-11-06T00:04:15;88.40;;;12.83;;
29026;SDS011;16120;48.608;9.092;2022-11-06T00:08:11;85.50;;;12.40;;
29026;SDS011;16120;48.608;9.092;2022-11-06T00:12:06;86.17;;;12.70;;
29026;SDS011;16120;48.608;9.092;2022-11-06T00:16:02;91.07;;;13.90;;
29026;SDS011;16120;48.608;9.092;2022-11-06T00:19:58;90.50;;;13.20;;
29026;SDS011;16120;48.608;9.092;2022-11-06T00:23:54;89.27;;;12.87;;
29026;SDS011;16120;48.608;9.092;2022-11-06T00:27:50;88.33;;;11.90;;
29026;SDS011;16120;48.608;9.092;2022-11-06T00:31:48;88.40;;;11.60;;
29026;SDS011;16120;48.608;9.092;2022-11-06T00:35:44;83.50;;;11.67;;
29026;SDS011;16120;48.608;9.092;2022-11-06T00:39:40;85.97;;;12.20;;
29026;SDS011;16120;48.608;9.092;2022-11-06T00:43:35;89.03;;;13.17;;
29026;SDS011;16120;48.608;9.092;2022-11-06T00:47:30;85.87;;;11.87;;
29026;SDS011;16120;48.608;9.092;2022-11-06T00:51:27;87.07;;;11.80;;
29026;SDS011;16120;48.608;9.092;2022-11-06T00:55:23;86.37;;;11.90;;
29026;SDS011;16120;48.608;9.092;2022-11-06T00:59:18;90.45;;;12.15;;
29026;SDS011;16120;48.608;9.092;2022-11-06T01:03:13;85.60;;;12.33;;
29026;SDS011;16120;48.608;9.092;2022-11-06T01:07:10;85.93;;;12.85;;
29026;SDS011;16120;48.608;9.092;2022-11-06T01:11:06;89.40;;;12.80;;
29026;SDS011;16120;48.608;9.092;2022-11-06T01:15:01;88.87;;;13.80;;
29026;SDS011;16120;48.608;9.092;2022-11-06T01:18:57;85.43;;;12.57;;
29026;SDS011;16120;48.608;9.092;2022-11-06T01:22:54;93.70;;;14.40;;
29026;SDS011;16120;48.608;9.092;2022-11-06T01:26:49;87.20;;;13.53;;
29026;SDS011;16120;48.608;9.092;2022-11-06T01:30:44;90.27;;;13.33;;
29026;SDS011;16120;48.608;9.092;2022-11-06T01:34:39;84.28;;;11.20;;
29026;SDS011;16120;48.608;9.092;2022-11-06T01:38:38;88.18;;;12.05;;
29026;SDS011;16120;48.608;9.092;2022-11-06T01:42:33;92.43;;;14.23;;
29026;SDS011;16120;48.608;9.092;2022-11-06T01:46:29;93.35;;;13.68;;
29026;SDS011;16120;48.608;9.092;2022-11-06T01:50:25;90.37;;;13.90;;
29026;SDS011;16120;48.608;9.092;2022-11-06T01:54:22;86.87;;;11.87;;
29026;SDS011;16120;48.608;9.092;2022-11-06T01:58:18;86.93;;;11.90;;
29026;SDS011;16120;48.608;9.092;2022-11-06T02:02:14;81.77;;;9.63;;
29026;SDS011;16120;48.608;9.092;2022-11-06T02:06:10;84.17;;;10.10;;
29026;SDS011;16120;48.608;9.092;2022-11-06T02:10:07;88.80;;;10.40;;
29026;SDS011;16120;48.608;9.092;2022-11-06T02:14:04;88.87;;;12.23;;
29026;SDS011;16120;48.608;9.092;2022-11-06T02:22:27;83.40;;;10.50;;
29026;SDS011;16120;48.608;9.092;2022-11-06T02:26:31;82.57;;;10.23;;
29026;SDS011;16120;48.608;9.092;2022-11-06T02:30:29;83.17;;;10.20;;
29026;SDS011;16120;48.608;9.092;2022-11-06T02:34:26;86.53;;;11.73;;
29026;SDS011;16120;48.608;9.092;2022-11-06T02:38:22;84.43;;;10.97;;
29026;SDS011;16120;48.608;9.092;2022-11-06T02:42:18;83.23;;;10.60;;
29026;SDS011;16120;48.608;9.092;2022-11-06T02:46:16;81.27;;;9.77;;
29026;SDS011;16120;48.608;9.092;2022-11-06T02:50:13;83.80;;;9.63;;
29026;SDS011;16120;48.608;9.092;2022-11-06T02:54:09;85.10;;;10.20;;
29026;SDS011;16120;48.608;9.092;2022-11-06T02:58:07;86.60;;;10.60;;
29026;SDS011;16120;48.608;9.092;2022-11-06T03:02:05;81.93;;;10.60;;
29026;SDS011;16120;48.608;9.092;2022-11-06T03:06:03;82.67;;;10.17;;
29026;SDS011;16120;48.608;9.092;2022-11-06T03:10:01;84.27;;;10.73;;
29026;SDS011;16120;48.608;9.092;2022-11-06T03:13:57;84.47;;;11.03;;
29026;SDS011;16120;48.608;9.092;2022-11-06T03:17:58;82.03;;;10.50;;
29026;SDS011;16120;48.608;9.092;2022-11-06T03:22:01;83.10;;;11.77;;
29026;SDS011;16120;48.608;9.092;2022-11-06T03:26:00;86.60;;;10.63;;
29026;SDS011;16120;48.608;9.092;2022-11-06T03:30:02;86.50;;;11.50;;
29026;SDS011;16120;48.608;9.092;2022-11-06T03:34:07;83.83;;;11.27;;
29026;SDS011;16120;48.608;9.092;2022-11-06T03:38:06;85.87;;;11.47;;
29026;SDS011;16120;48.608;9.092;2022-11-06T03:42:02;82.57;;;10.23;;
29026;SDS011;16120;48.608;9.092;2022-11-06T03:45:59;84.27;;;10.90;;
29026;SDS011;16120;48.608;9.092;2022-11-06T03:49:58;86.13;;;10.90;;
29026;SDS011;16120;48.608;9.092;2022-11-06T03:53:55;82.43;;;9.87;;
29026;SDS011;16120;48.608;9.092;2022-11-06T03:57:53;81.30;;;10.03;;
29026;SDS011;16120;48.608;9.092;2022-11-06T04:01:50;84.17;;;11.50;;
29026;SDS011;16120;48.608;9.092;2022-11-06T04:05:50;83.40;;;10.87;;
29026;SDS011;16120;48.608;9.092;2022-11-06T04:09:47;84.27;;;11.00;;
29026;SDS011;16120;48.608;9.092;2022-11-06T04:13:43;85.70;;;12.20;;
29026;SDS011;16120;48.608;9.092;2022-11-06T04:17:39;85.30;;;11.40;;
29026;SDS011;16120;48.608;9.092;2022-11-06T04:21:41;83.90;;;9.40;;
29026;SDS011;16120;48.608;9.092;2022-11-06T04:25:39;82.90;;;10.23;;
29026;SDS011;16120;48.608;9.092;2022-11-06T04:29:47;83.23;;;9.50;;
29026;SDS011;16120;48.608;9.092;2022-11-06T04:33:44;82.90;;;9.30;;
29026;SDS011;16120;48.608;9.092;2022-11-06T04:37:45;81.23;;;9.00;;
29026;SDS011;16120;48.608;9.092;2022-11-06T04:41:45;79.57;;;8.87;;
29026;SDS011;16120;48.608;9.092;2022-11-06T04:45:44;78.40;;;8.57;;
29026;SDS011;16120;48.608;9.092;2022-11-06T04:49:41;78.07;;;8.10;;
29026;SDS011;16120;48.608;9.092;2022-11-06T04:53:38;80.63;;;9.60;;
29026;SDS011;16120;48.608;9.092;2022-11-06T04:57:34;81.20;;;10.37;;
29026;SDS011;16120;48.608;9.092;2022-11-06T05:01:29;81.77;;;10.27;;
29026;SDS011;16120;48.608;9.092;2022-11-06T05:05:24;80.82;;;9.88;;
29026;SDS011;16120;48.608;9.092;2022-11-06T05:09:21;79.77;;;9.37;;
29026;SDS011;16120;48.608;9.092;2022-11-06T05:13:16;82.80;;;10.33;;
29026;SDS011;16120;48.608;9.092;2022-11-06T05:17:12;82.40;;;10.50;;
29026;SDS011;16120;48.608;9.092;2022-11-06T05:21:07;84.40;;;10.50;;
29026;SDS011;16120;48.608;9.092;2022-11-06T05:25:05;81.77;;;9.90;;
29026;SDS011;16120;48.608;9.092;2022-11-06T05:29:00;83.47;;;10.80;;
29026;SDS011;16120;48.608;9.092;2022-11-06T05:32:56;79.38;;;9.88;;
29026;SDS011;16120;48.608;9.092;2022-11-06T05:36:51;81.50;;;10.30;;
29026;SDS011;16120;48.608;9.092;2022-11-06T05:40:47;83.57;;;11.00;;
29026;SDS011;16120;48.608;9.092;2022-11-06T05:44:42;80.30;;;10.37;;
29026;SDS011;16120;48.608;9.092;2022-11-06T05:48:38;80.37;;;9.83;;
29026;SDS011;16120;48.608;9.092;2022-11-06T05:52:33;80.57;;;9.23;;
29026;SDS011;16120;48.608;9.092;2022-11-06T05:56:29;80.85;;;9.07;;
29026;SDS011;16120;48.608;9.092;2022-11-06T06:00:25;78.77;;;8.97;;
29026;SDS011;16120;48.608;9.092;2022-11-06T06:04:20;79.40;;;8.83;;
29026;SDS011;16120;48.608;9.092;2022-11-06T06:08:15;86.20;;;10.57;;
29026;SDS011;16120;48.608;9.092;2022-11-06T06:12:12;85.22;;;11.10;;
29026;SDS011;16120;48.608;9.092;2022-11-06T06:16:07;80.10;;;9.47;;
29026;SDS011;16120;48.608;9.092;2022-11-06T06:20:03;85.40;;;9.05;;
29026;SDS011;16120;48.608;9.092;2022-11-06T06:23:58;80.87;;;9.80;;
29026;SDS011;16120;48.608;9.092;2022-11-06T06:27:55;80.93;;;10.45;;
29026;SDS011;16120;48.608;9.092;2022-11-06T06:31:50;82.80;;;11.40;;
29026;SDS011;16120;48.608;9.092;2022-11-06T06:35:45;83.13;;;11.90;;
29026;SDS011;16120;48.608;9.092;2022-11-06T06:39:41;88.43;;;13.15;;
29026;SDS011;16120;48.608;9.092;2022-11-06T06:43:37;87.50;;;13.20;;
29026;SDS011;16120;48.608;9.092;2022-11-06T06:47:32;83.67;;;11.37;;
29026;SDS011;16120;48.608;9.092;2022-11-06T06:51:28;82.47;;;11.30;;
29026;SDS011;16120;48.608;9.092;2022-11-06T06:55:23;81.22;;;10.10;;
29026;SDS011;16120;48.608;9.092;2022-11-06T06:59:20;80.30;;;10.03;;
29026;SDS011;16120;48.608;9.092;2022-11-06T07:03:15;83.77;;;12.00;;
29026;SDS011;16120;48.608;9.092;2022-11-06T07:07:10;85.50;;;11.97;;
29026;SDS011;16120;48.608;9.092;2022-11-06T07:11:06;88.38;;;14.85;;
29026;SDS011;16120;48.608;9.092;2022-11-06T07:15:03;84.40;;;11.27;;
29026;SDS011;16120;48.608;9.092;2022-11-06T07:18:58;79.63;;;10.00;;
29026;SDS011;16120;48.608;9.092;2022-11-06T07:22:53;78.60;;;9.17;;
29026;SDS011;16120;48.608;9.092;2022-11-06T07:26:48;81.90;;;10.50;;
29026;SDS011;16120;48.608;9.092;2022-11-06T07:30:45;90.10;;;14.48;;
29026;SDS011;16120;48.608;9.092;2022-11-06T07:34:40;86.83;;;15.77;;
29026;SDS011;16120;48.608;9.092;2022-11-06T07:38:36;92.78;;;15.90;;
29026;SDS011;16120;48.608;9.092;2022-11-06T07:42:31;89.33;;;16.80;;
29026;SDS011;16120;48.608;9.092;2022-11-06T07:46:28;93.45;;;17.13;;
29026;SDS011;16120;48.608;9.092;2022-11-06T07:50:23;90.93;;;16.33;;
29026;SDS011;16120;48.608;9.092;2022-11-06T07:54:19;89.10;;;15.10;;
29026;SDS011;16120;48.608;9.092;2022-11-06T07:58:14;92.18;;;18.10;;
29026;SDS011;16120;48.608;9.092;2022-11-06T08:02:11;93.45;;;17.38;;
29026;SDS011;16120;48.608;9.092;2022-11-06T08:06:06;97.77;;;20.00;;
29026;SDS011;16120;48.608;9.092;2022-11-06T08:10:02;100.00;;;21.63;;
29026;SDS011;16120;48.608;9.092;2022-11-06T08:13:58;98.53;;;19.70;;
29026;SDS011;16120;48.608;9.092;2022-11-06T08:17:54;97.20;;;18.57;;
29026;SDS011;16120;48.608;9.092;2022-11-06T08:21:52;87.27;;;14.53;;
29026;SDS011;16120;48.608;9.092;2022-11-06T08:25:47;86.30;;;14.13;;
29026;SDS011;16120;48.608;9.092;2022-11-06T08:29:42;86.28;;;12.68;;
29026;SDS011;16120;48.608;9.092;2022-11-06T08:33:39;85.78;;;13.43;;
29026;SDS011;16120;48.608;9.092;2022-11-06T08:37:34;83.33;;;12.13;;
29026;SDS011;16120;48.608;9.092;2022-11-06T08:41:30;84.70;;;11.10;;
29026;SDS011;16120;48.608;9.092;2022-11-06T08:45:25;84.87;;;11.47;;
29026;SDS011;16120;48.608;9.092;2022-11-06T08:49:22;83.90;;;11.17;;
29026;SDS011;16120;48.608;9.092;2022-11-06T08:53:17;86.63;;;11.13;;
29026;SDS011;16120;48.608;9.092;2022-11-06T08:57:12;82.90;;;11.40;;
29026;SDS011;16120;48.608;9.092;2022-11-06T09:01:07;83.45;;;10.95;;
29026;SDS011;16120;48.608;9.092;2022-11-06T09:05:05;84.57;;;11.00;;
29026;SDS011;16120;48.608;9.092;2022-11-06T09:09:00;83.23;;;11.10;;
29026;SDS011;16120;48.608;9.092;2022-11-06T09:12:56;82.67;;;10.30;;
29026;SDS011;16120;48.608;9.092;2022-11-06T09:16:52;83.70;;;10.57;;
29026;SDS011;16120;48.608;9.092;2022-11-06T09:20:52;82.13;;;9.47;;
29026;SDS011;16120;48.608;9.092;2022-11-06T09:24:47;80.97;;;9.03;;
29026;SDS011;16120;48.608;9.092;2022-11-06T09:28:42;79.87;;;8.60;;
29026;SDS011;16120;48.608;9.092;2022-11-06T09:32:38;81.10;;;8.17;;
29026;SDS011;16120;48.608;9.092;2022-11-06T09:36:38;80.53;;;8.47;;
29026;SDS011;16120;48.608;9.092;2022-11-06T09:40:34;79.00;;;7.97;;
29026;SDS011;16120;48.608;9.092;2022-11-06T09:44:34;79.77;;;8.23;;
29026;SDS011;16120;48.608;9.092;2022-11-06T09:48:32;79.90;;;8.57;;
29026;SDS011;16120;48.608;9.092;2022-11-06T09:52:31;79.97;;;7.93;;
29026;SDS011;16120;48.608;9.092;2022-11-06T09:56:29;78.50;;;8.10;;
29026;SDS011;16120;48.608;9.092;2022-11-06T10:00:26;77.87;;;7.73;;
29026;SDS011;16120;48.608;9.092;2022-11-06T10:04:27;80.10;;;8.07;;
29026;SDS011;16120;48.608;9.092;2022-11-06T10:08:26;77.90;;;7.80;;
29026;SDS011;16120;48.608;9.092;2022-11-06T10:12:23;77.47;;;7.50;;
29026;SDS011;16120;48.608;9.092;2022-11-06T10:16:23;77.33;;;7.27;;
29026;SDS011;16120;48.608;9.092;2022-11-06T10:20:20;79.27;;;7.20;;
29026;SDS011;16120;48.608;9.092;2022-11-06T10:24:23;76.30;;;6.00;;
29026;SDS011;16120;48.608;9.092;2022-11-06T10:28:25;76.67;;;6.37;;
29026;SDS011;16120;48.608;9.092;2022-11-06T10:36:38;76.30;;;6.63;;
29026;SDS011;16120;48.608;9.092;2022-11-06T10:40:37;76.70;;;6.60;;
29026;SDS011;16120;48.608;9.092;2022-11-06T10:44:37;77.10;;;6.40;;
29026;SDS011;16120;48.608;9.092;2022-11-06T10:48:36;78.30;;;6.23;;
29026;SDS011;16120;48.608;9.092;2022-11-06T10:52:35;76.07;;;6.63;;
29026;SDS011;16120;48.608;9.092;2022-11-06T10:56:36;75.40;;;6.17;;
29026;SDS011;16120;48.608;9.092;2022-11-06T11:00:35;76.90;;;6.67;;
29026;SDS011;16120;48.608;9.092;2022-11-06T11:04:30;75.67;;;6.50;;
29026;SDS011;16120;48.608;9.092;2022-11-06T11:08:33;77.30;;;6.37;;
29026;SDS011;16120;48.608;9.092;2022-11-06T11:12:30;75.57;;;5.90;;
29026;SDS011;16120;48.608;9.092;2022-11-06T11:16:26;79.10;;;6.37;;
29026;SDS011;16120;48.608;9.092;2022-11-06T11:20:29;75.00;;;6.20;;
29026;SDS011;16120;48.608;9.092;2022-11-06T11:24:25;76.00;;;6.30;;
29026;SDS011;16120;48.608;9.092;2022-11-06T11:28:23;74.80;;;6.27;;
29026;SDS011;16120;48.608;9.092;2022-11-06T11:32:19;76.23;;;6.60;;
29026;SDS011;16120;48.608;9.092;2022-11-06T11:36:15;75.07;;;6.00;;
29026;SDS011;16120;48.608;9.092;2022-11-06T11:40:17;74.37;;;5.10;;
29026;SDS011;16120;48.608;9.092;2022-11-06T11:44:16;75.77;;;6.47;;
29026;SDS011;16120;48.608;9.092;2022-11-06T11:48:12;77.80;;;6.50;;
29026;SDS011;16120;48.608;9.092;2022-11-06T11:52:12;75.77;;;6.10;;
29026;SDS011;16120;48.608;9.092;2022-11-06T11:56:12;74.97;;;6.20;;
29026;SDS011;16120;48.608;9.092;2022-11-06T12:00:13;83.57;;;6.57;;
29026;SDS011;16120;48.608;9.092;2022-11-06T12:04:14;74.13;;;5.30;;
29026;SDS011;16120;48.608;9.092;2022-11-06T12:08:11;76.40;;;7.00;;
29026;SDS011;16120;48.608;9.092;2022-11-06T12:12:17;76.00;;;6.73;;
29026;SDS011;16120;48.608;9.092;2022-11-06T12:16:15;75.43;;;6.43;;
29026;SDS011;16120;48.608;9.092;2022-11-06T12:20:13;75.97;;;6.40;;
29026;SDS011;16120;48.608;9.092;2022-11-06T12:24:11;75.17;;;6.17;;
29026;SDS011;16120;48.608;9.092;2022-11-06T12:28:11;76.97;;;6.10;;
29026;SDS011;16120;48.608;9.092;2022-11-06T12:32:13;76.57;;;6.57;;
29026;SDS011;16120;48.608;9.092;2022-11-06T12:36:09;74.47;;;6.30;;
29026;SDS011;16120;48.608;9.092;2022-11-06T12:40:13;74.17;;;6.20;;
29026;SDS011;16120;48.608;9.092;2022-11-06T12:44:19;77.67;;;7.67;;
29026;SDS011;16120;48.608;9.092;2022-11-06T12:48:21;73.60;;;5.27;;
29026;SDS011;16120;48.608;9.092;2022-11-06T12:52:22;73.03;;;4.50;;
29026;SDS011;16120;48.608;9.092;2022-11-06T12:56:21;74.70;;;5.87;;
29026;SDS011;16120;48.608;9.092;2022-11-06T13:00:17;76.77;;;7.27;;
29026;SDS011;16120;48.608;9.092;2022-11-06T13:04:19;81.33;;;9.40;;
29026;SDS011;16120;48.608;9.092;2022-11-06T13:08:19;74.27;;;5.60;;
29026;SDS011;16120;48.608;9.092;2022-11-06T13:12:21;73.47;;;5.00;;
29026;SDS011;16120;48.608;9.092;2022-11-06T13:16:20;72.07;;;4.40;;
29026;SDS011;16120;48.608;9.092;2022-11-06T13:20:23;74.23;;;5.87;;
29026;SDS011;16120;48.608;9.092;2022-11-06T13:24:21;73.10;;;4.63;;
29026;SDS011;16120;48.608;9.092;2022-11-06T13:28:27;73.33;;;4.50;;
29026;SDS011;16120;48.608;9.092;2022-11-06T13:32:23;72.17;;;4.40;;
29026;SDS011;16120;48.608;9.092;2022-11-06T13:36:21;72.20;;;4.80;;
29026;SDS011;16120;48.608;9.092;2022-11-06T13:40:19;73.20;;;4.90;;
29026;SDS011;16120;48.608;9.092;2022-11-06T13:44:16;71.27;;;4.40;;
29026;SDS011;16120;48.608;9.092;2022-11-06T13:48:16;70.80;;;4.50;;
29026;SDS011;16120;48.608;9.092;2022-11-06T13:52:14;72.90;;;4.57;;
29026;SDS011;16120;48.608;9.092;2022-11-06T13:56:13;71.90;;;4.80;;
29026;SDS011;16120;48.608;9.092;2022-11-06T14:00:19;74.57;;;5.70;;
29026;SDS011;16120;48.608;9.092;2022-11-06T14:04:32;75.30;;;5.87;;
29026;SDS011;16120;48.608;9.092;2022-11-06T14:08:32;74.43;;;5.77;;
29026;SDS011;16120;48.608;9.092;2022-11-06T14:12:28;73.17;;;5.23;;
29026;SDS011;16120;48.608;9.092;2022-11-06T14:16:24;73.20;;;5.20;;
29026;SDS011;16120;48.608;9.092;2022-11-06T14:20:27;73.43;;;5.10;;
29026;SDS011;16120;48.608;9.092;2022-11-06T14:24:28;72.00;;;4.60;;
29026;SDS011;16120;48.608;9.092;2022-11-06T14:28:28;76.43;;;4.70;;
29026;SDS011;16120;48.608;9.092;2022-11-06T14:32:43;75.37;;;5.30;;
29026;SDS011;16120;48.608;9.092;2022-11-06T14:36:38;73.80;;;5.37;;
29026;SDS011;16120;48.608;9.092;2022-11-06T14:40:35;77.07;;;7.90;;
29026;SDS011;16120;48.608;9.092;2022-11-06T14:44:32;74.87;;;7.03;;
29026;SDS011;16120;48.608;9.092;2022-11-06T14:48:30;75.13;;;6.63;;
29026;SDS011;16120;48.608;9.092;2022-11-06T14:52:26;73.97;;;6.63;;
29026;SDS011;16120;48.608;9.092;2022-11-06T14:56:24;75.87;;;7.07;;
29026;SDS011;16120;48.608;9.092;2022-11-06T15:00:33;75.87;;;6.80;;
29026;SDS011;16120;48.608;9.092;2022-11-06T15:04:29;75.70;;;6.20;;
29026;SDS011;16120;48.608;9.092;2022-11-06T15:17:01;76.20;;;7.03;;
29026;SDS011;16120;48.608;9.092;2022-11-06T15:20:58;78.67;;;6.97;;
29026;SDS011;16120;48.608;9.092;2022-11-06T15:24:56;77.10;;;7.60;;
29026;SDS011;16120;48.608;9.092;2022-11-06T15:29:00;79.80;;;7.77;;
29026;SDS011;16120;48.608;9.092;2022-11-06T15:32:59;77.60;;;7.50;;
29026;SDS011;16120;48.608;9.092;2022-11-06T15:36:57;77.57;;;7.57;;
29026;SDS011;16120;48.608;9.092;2022-11-06T15:40:55;77.57;;;7.80;;
29026;SDS011;16120;48.608;9.092;2022-11-06T15:44:51;78.37;;;8.10;;
29026;SDS011;16120;48.608;9.092;2022-11-06T15:48:48;77.10;;;8.00;;
29026;SDS011;16120;48.608;9.092;2022-11-06T15:53:20;77.30;;;7.33;;
29026;SDS011;16120;48.608;9.092;2022-11-06T15:57:17;75.30;;;6.40;;
29026;SDS011;16120;48.608;9.092;2022-11-06T16:01:13;78.50;;;7.03;;
29026;SDS011;16120;48.608;9.092;2022-11-06T16:05:10;76.47;;;7.70;;
29026;SDS011;16120;48.608;9.092;2022-11-06T16:09:07;150.37;;;45.43;;
29026;SDS011;16120;48.608;9.092;2022-11-06T16:13:08;86.27;;;13.83;;
29026;SDS011;16120;48.608;9.092;2022-11-06T16:17:07;83.50;;;12.27;;
29026;SDS011;16120;48.608;9.092;2022-11-06T16:21:08;98.50;;;19.33;;
29026;SDS011;16120;48.608;9.092;2022-11-06T16:25:05;92.17;;;16.33;;
29026;SDS011;16120;48.608;9.092;2022-11-06T16:29:01;79.90;;;10.23;;
29026;SDS011;16120;48.608;9.092;2022-11-06T16:32:57;79.73;;;9.27;;
29026;SDS011;16120;48.608;9.092;2022-11-06T16:36:59;81.50;;;11.13;;
29026;SDS011;16120;48.608;9.092;2022-11-06T16:40:54;80.63;;;11.13;;
29026;SDS011;16120;48.608;9.092;2022-11-06T16:44:49;105.70;;;22.00;;
29026;SDS011;16120;48.608;9.092;2022-11-06T16:48:45;90.90;;;15.30;;
29026;SDS011;16120;48.608;9.092;2022-11-06T16:52:41;99.70;;;25.53;;
29026;SDS011;16120;48.608;9.092;2022-11-06T16:56:36;87.90;;;14.80;;
29026;SDS011;16120;48.608;9.092;2022-11-06T17:00:32;89.90;;;16.67;;
29026;SDS011;16120;48.608;9.092;2022-11-06T17:04:27;81.37;;;10.10;;
29026;SDS011;16120;48.608;9.092;2022-11-06T17:08:25;81.50;;;10.65;;
29026;SDS011;16120;48.608;9.092;2022-11-06T17:12:20;81.07;;;10.23;;
29026;SDS011;16120;48.608;9.092;2022-11-06T17:16:16;87.75;;;15.35;;
29026;SDS011;16120;48.608;9.092;2022-11-06T17:20:12;88.80;;;15.87;;
29026;SDS011;16120;48.608;9.092;2022-11-06T17:24:12;86.50;;;14.27;;
29026;SDS011;16120;48.608;9.092;2022-11-06T17:28:07;83.90;;;13.00;;
29026;SDS011;16120;48.608;9.092;2022-11-06T17:32:03;79.30;;;8.63;;
29026;SDS011;16120;48.608;9.092;2022-11-06T17:35:58;79.73;;;8.77;;
29026;SDS011;16120;48.608;9.092;2022-11-06T17:39:55;80.33;;;7.93;;
29026;SDS011;16120;48.608;9.092;2022-11-06T17:43:50;75.93;;;7.10;;
29026;SDS011;16120;48.608;9.092;2022-11-06T17:47:45;75.35;;;6.35;;
29026;SDS011;16120;48.608;9.092;2022-11-06T17:51:41;76.72;;;7.10;;
29026;SDS011;16120;48.608;9.092;2022-11-06T17:55:37;77.30;;;7.50;;
29026;SDS011;16120;48.608;9.092;2022-11-06T17:59:33;76.67;;;7.40;;
29026;SDS011;16120;48.608;9.092;2022-11-06T18:03:28;77.40;;;7.27;;
29026;SDS011;16120;48.608;9.092;2022-11-06T18:07:23;77.50;;;7.00;;
29026;SDS011;16120;48.608;9.092;2022-11-06T18:11:20;75.97;;;6.63;;
29026;SDS011;16120;48.608;9.092;2022-11-06T18:15:15;75.77;;;6.37;;
29026;SDS011;16120;48.608;9.092;2022-11-06T18:19:13;75.40;;;6.30;;
29026;SDS011;16120;48.608;9.092;2022-11-06T18:23:08;75.57;;;6.23;;
29026;SDS011;16120;48.608;9.092;2022-11-06T18:27:05;74.50;;;5.70;;
29026;SDS011;16120;48.608;9.092;2022-11-06T18:31:00;75.30;;;6.13;;
29026;SDS011;16120;48.608;9.092;2022-11-06T18:34:56;75.82;;;6.75;;
29026;SDS011;16120;48.608;9.092;2022-11-06T18:38:51;73.57;;;5.47;;
29026;SDS011;16120;48.608;9.092;2022-11-06T18:42:48;75.65;;;6.22;;
29026;SDS011;16120;48.608;9.092;2022-11-06T18:46:43;74.17;;;6.10;;
29026;SDS011;16120;48.608;9.092;2022-11-06T18:50:38;74.57;;;6.07;;
29026;SDS011;16120;48.608;9.092;2022-11-06T18:54:33;76.10;;;7.00;;
29026;SDS011;16120;48.608;9.092;2022-11-06T18:58:30;75.27;;;6.10;;
29026;SDS011;16120;48.608;9.092;2022-11-06T19:02:25;77.20;;;6.67;;
29026;SDS011;16120;48.608;9.092;2022-11-06T19:06:20;74.70;;;6.20;;
29026;SDS011;16120;48.608;9.092;2022-11-06T19:10:16;75.27;;;6.10;;
29026;SDS011;16120;48.608;9.092;2022-11-06T19:14:12;76.20;;;5.65;;
29026;SDS011;16120;48.608;9.092;2022-11-06T19:18:07;75.13;;;6.23;;
29026;SDS011;16120;48.608;9.092;2022-11-06T19:22:03;75.30;;;6.00;;
29026;SDS011;16120;48.608;9.092;2022-11-06T19:25:58;75.17;;;5.73;;
29026;SDS011;16120;48.608;9.092;2022-11-06T19:29:54;74.50;;;5.93;;
29026;SDS011;16120;48.608;9.092;2022-11-06T19:33:50;74.30;;;5.43;;
29026;SDS011;16120;48.608;9.092;2022-11-06T19:37:45;74.05;;;5.50;;
29026;SDS011;16120;48.608;9.092;2022-11-06T19:41:40;74.80;;;5.40;;
29026;SDS011;16120;48.608;9.092;2022-11-06T19:45:37;75.23;;;6.07;;
29026;SDS011;16120;48.608;9.092;2022-11-06T19:49:32;72.73;;;4.80;;
29026;SDS011;16120;48.608;9.092;2022-11-06T19:53:28;75.60;;;5.57;;
29026;SDS011;16120;48.608;9.092;2022-11-06T19:57:23;73.50;;;5.40;;
29026;SDS011;16120;48.608;9.092;2022-11-06T20:01:19;74.10;;;5.50;;
29026;SDS011;16120;48.608;9.092;2022-11-06T20:05:15;74.20;;;5.60;;
29026;SDS011;16120;48.608;9.092;2022-11-06T20:09:10;73.97;;;5.60;;
29026;SDS011;16120;48.608;9.092;2022-11-06T20:13:05;74.67;;;5.87;;
29026;SDS011;16120;48.608;9.092;2022-11-06T20:17:02;73.50;;;5.27;;
29026;SDS011;16120;48.608;9.092;2022-11-06T20:20:58;73.57;;;5.30;;
29026;SDS011;16120;48.608;9.092;2022-11-06T20:24:53;73.57;;;5.20;;
29026;SDS011;16120;48.608;9.092;2022-11-06T20:28:48;72.75;;;4.85;;
29026;SDS011;16120;48.608;9.092;2022-11-06T20:32:45;74.90;;;5.40;;
29026;SDS011;16120;48.608;9.092;2022-11-06T20:36:40;74.40;;;4.83;;
29026;SDS011;16120;48.608;9.092;2022-11-06T20:40:36;73.10;;;4.73;;
29026;SDS011;16120;48.608;9.092;2022-11-06T20:44:31;73.50;;;4.90;;
29026;SDS011;16120;48.608;9.092;2022-11-06T20:48:27;74.17;;;5.10;;
29026;SDS011;16120;48.608;9.092;2022-11-06T20:52:22;73.70;;;5.20;;
29026;SDS011;16120;48.608;9.092;2022-11-06T20:56:18;73.72;;;5.18;;
29026;SDS011;16120;48.608;9.092;2022-11-06T21:00:14;74.53;;;4.90;;
29026;SDS011;16120;48.608;9.092;2022-11-06T21:04:11;75.43;;;5.20;;
29026;SDS011;16120;48.608;9.092;2022-11-06T21:08:06;74.47;;;4.60;;
29026;SDS011;16120;48.608;9.092;2022-11-06T21:12:02;72.70;;;4.57;;
29026;SDS011;16120;48.608;9.092;2022-11-06T21:16:01;75.33;;;4.43;;
29026;SDS011;16120;48.608;9.092;2022-11-06T21:19:57;73.43;;;5.00;;
29026;SDS011;16120;48.608;9.092;2022-11-06T21:23:53;73.13;;;4.60;;
29026;SDS011;16120;48.608;9.092;2022-11-06T21:27:48;72.60;;;4.83;;
29026;SDS011;16120;48.608;9.092;2022-11-06T21:31:44;79.38;;;5.15;;
29026;SDS011;16120;48.608;9.092;2022-11-06T21:35:40;73.38;;;5.03;;
29026;SDS011;16120;48.608;9.092;2022-11-06T21:39:35;73.90;;;4.97;;
29026;SDS011;16120;48.608;9.092;2022-11-06T21:43:31;72.45;;;4.90;;
29026;SDS011;16120;48.608;9.092;2022-11-06T21:47:26;72.80;;;4.70;;
29026;SDS011;16120;48.608;9.092;2022-11-06T21:51:23;73.32;;;4.50;;
29026;SDS011;16120;48.608;9.092;2022-11-06T21:55:19;72.60;;;4.53;;
29026;SDS011;16120;48.608;9.092;2022-11-06T21:59:15;72.60;;;4.60;;
29026;SDS011;16120;48.608;9.092;2022-11-06T22:03:10;74.80;;;4.93;;
29026;SDS011;16120;48.608;9.092;2022-11-06T22:07:07;72.40;;;4.40;;
29026;SDS011;16120;48.608;9.092;2022-11-06T22:11:09;73.27;;;4.87;;
29026;SDS011;16120;48.608;9.092;2022-11-06T22:15:05;75.37;;;4.90;;
29026;SDS011;16120;48.608;9.092;2022-11-06T22:19:01;74.70;;;4.80;;
29026;SDS011;16120;48.608;9.092;2022-11-06T22:22:57;72.67;;;4.40;;
29026;SDS011;16120;48.608;9.092;2022-11-06T22:26:52;73.33;;;4.27;;
29026;SDS011;16120;48.608;9.092;2022-11-06T22:30:48;73.83;;;4.60;;
29026;SDS011;16120;48.608;9.092;2022-11-06T22:34:43;75.00;;;3.97;;
29026;SDS011;16120;48.608;9.092;2022-11-06T22:38:40;71.47;;;4.00;;
29026;SDS011;16120;48.608;9.092;2022-11-06T22:42:35;72.47;;;4.23;;
29026;SDS011;16120;48.608;9.092;2022-11-06T22:46:31;73.18;;;4.10;;
29026;SDS011;16120;48.608;9.092;2022-11-06T22:50:26;74.90;;;4.37;;
29026;SDS011;16120;48.608;9.092;2022-11-06T22:54:23;73.13;;;4.30;;
29026;SDS011;16120;48.608;9.092;2022-11-06T22:58:18;76.77;;;4.30;;
29026;SDS011;16120;48.608;9.092;2022-11-06T23:02:13;75.10;;;4.30;;
29026;SDS011;16120;48.608;9.092;2022-11-06T23:06:08;71.30;;;3.90;;
29026;SDS011;16120;48.608;9.092;2022-11-06T23:10:06;73.10;;;4.15;;
29026;SDS011;16120;48.608;9.092;2022-11-06T23:14:01;71.47;;;4.30;;
29026;SDS011;16120;48.608;9.092;2022-11-06T23:17:56;74.60;;;4.70;;
29026;SDS011;16120;48.608;9.092;2022-11-06T23:21:52;73.00;;;4.20;;
29026;SDS011;16120;48.608;9.092;2022-11-06T23:25:49;72.43;;;4.13;;
29026;SDS011;16120;48.608;9.092;2022-11-06T23:29:44;72.70;;;4.20;;
29026;SDS011;16120;48.608;9.092;2022-11-06T23:33:39;74.20;;;4.20;;